Time;durP1;ratioP1;P1;durP2;ratioP2;P2;SDS_P1;SDS_P2;PMS_P1;PMS_P2;Temp;Humidity;BMP_temperature;BMP_pressure;BME280_temperature;BME280_humidity;BME280_pressure;Samples;Min_cycle;Max_cycle;Signal;HPM_P1;HPM_P2
2020/12/31 00:02:05;;;;;;;21.53;4.57;;;;;;;10.74;52.95;93919.97;4993445;28;20666;-72
2020/12/31 00:04:31;;;;;;;10.70;4.80;;;;;;;10.62;52.67;93901.56;5011289;28;20174;-69
2020/12/31 00:06:56;;;;;;;21.97;4.73;;;;;;;10.52;53.16;93902.25;5011044;28;20236;-69
2020/12/31 00:09:23;;;;;;;14.73;4.17;;;;;;;10.53;53.43;93917.88;5011539;28;20192;-71
2020/12/31 00:11:49;;;;;;;12.27;4.60;;;;;;;10.66;52.69;93912.25;5014974;28;20185;-72
2020/12/31 00:14:14;;;;;;;13.87;4.70;;;;;;;10.41;53.65;93888.78;5014941;28;20630;-72
2020/12/31 00:16:40;;;;;;;17.00;4.23;;;;;;;10.30;54.01;93915.38;5014575;28;20189;-71
2020/12/31 00:19:05;;;;;;;12.30;3.93;;;;;;;10.27;53.66;93888.69;5015027;28;20177;-70
2020/12/31 00:21:31;;;;;;;16.63;4.57;;;;;;;10.41;53.80;93882.69;5014456;28;20698;-70
2020/12/31 00:23:56;;;;;;;12.00;3.97;;;;;;;10.28;54.75;93895.53;5014780;28;20208;-70
2020/12/31 00:26:22;;;;;;;11.73;4.10;;;;;;;10.13;55.58;93899.94;5014542;28;20224;-70
2020/12/31 00:28:48;;;;;;;19.90;5.00;;;;;;;10.35;54.64;93906.28;5014509;28;20217;-72
2020/12/31 00:31:13;;;;;;;17.43;4.43;;;;;;;10.42;53.84;93884.22;5014719;28;20216;-72
2020/12/31 00:33:39;;;;;;;15.73;4.33;;;;;;;10.31;54.64;93884.88;5014439;28;20671;-73
2020/12/31 00:36:04;;;;;;;12.97;3.57;;;;;;;10.38;53.61;93907.44;4996640;28;20193;-73
2020/12/31 00:38:30;;;;;;;17.53;4.43;;;;;;;10.17;54.27;93890.06;5014349;28;20173;-70
2020/12/31 00:40:56;;;;;;;16.43;6.13;;;;;;;10.06;54.29;93875.84;5014485;28;20260;-69
2020/12/31 00:43:22;;;;;;;18.90;5.87;;;;;;;10.11;54.89;93864.88;5014153;28;20212;-72
2020/12/31 00:45:47;;;;;;;17.73;6.40;;;;;;;10.20;54.59;93888.56;5014280;28;21086;-72
2020/12/31 00:48:13;;;;;;;14.13;5.00;;;;;;;10.32;53.73;93878.44;4995887;28;20695;-71
2020/12/31 00:50:38;;;;;;;14.40;4.27;;;;;;;10.36;53.09;93867.78;5014352;28;20208;-71
2020/12/31 00:53:04;;;;;;;14.97;4.57;;;;;;;10.40;52.91;93836.56;5014138;28;20197;-70
2020/12/31 00:55:29;;;;;;;19.77;4.67;;;;;;;10.60;52.36;93837.84;5014044;28;20184;-70
2020/12/31 00:57:55;;;;;;;16.10;4.60;;;;;;;10.71;52.37;93847.84;5014227;28;20539;-69
2020/12/31 01:00:21;;;;;;;9.40;3.80;;;;;;;10.69;52.31;93834.13;5013768;28;20178;-72
2020/12/31 01:02:46;;;;;;;12.40;3.10;;;;;;;10.70;52.45;93828.41;5014070;28;20714;-70
2020/12/31 01:05:12;;;;;;;16.67;4.60;;;;;;;10.56;52.54;93850.44;5013829;28;20256;-71
2020/12/31 01:07:37;;;;;;;10.77;3.73;;;;;;;10.38;52.93;93843.38;5013832;28;20264;-72
2020/12/31 01:10:07;;;;;;;14.00;3.57;;;;;;;10.49;53.20;93862.94;5013774;28;20180;-69
2020/12/31 01:12:32;;;;;;;19.07;4.90;;;;;;;10.34;54.09;93830.03;5013855;28;20169;-70
2020/12/31 01:14:58;;;;;;;14.13;4.60;;;;;;;10.22;53.85;93846.28;5013623;28;20694;-70
2020/12/31 01:17:26;;;;;;;18.70;4.47;;;;;;;10.31;54.23;93828.84;5013758;28;20176;-73
2020/12/31 01:19:52;;;;;;;12.33;3.40;;;;;;;10.51;53.53;93815.31;5013760;28;20181;-72
2020/12/31 01:22:18;;;;;;;7.90;2.73;;;;;;;10.58;53.08;93818.78;5013305;28;20704;-72
2020/12/31 01:24:43;;;;;;;9.57;3.43;;;;;;;10.63;53.26;93825.69;4996186;28;20268;-73
2020/12/31 01:27:09;;;;;;;9.33;3.27;;;;;;;10.30;53.68;93838.00;5013207;28;20340;-71
2020/12/31 01:29:34;;;;;;;14.27;3.87;;;;;;;10.11;54.18;93859.53;5013574;28;20278;-71
2020/12/31 01:32:00;;;;;;;8.13;3.00;;;;;;;10.12;54.49;93854.97;5013349;28;20184;-71
2020/12/31 01:34:25;;;;;;;14.00;4.30;;;;;;;10.45;53.73;93846.13;5013602;28;20177;-74
2020/12/31 01:36:54;;;;;;;10.17;3.40;;;;;;;10.59;52.94;93830.22;5013159;28;20200;-71
2020/12/31 01:39:20;;;;;;;7.17;3.10;;;;;;;10.45;53.30;93835.47;5013799;28;20169;-69
2020/12/31 01:41:46;;;;;;;14.90;3.77;;;;;;;9.97;55.15;93852.13;4995451;28;21210;-70
2020/12/31 01:44:11;;;;;;;14.03;3.30;;;;;;;10.06;54.15;93831.28;5013132;28;20595;-71
2020/12/31 01:46:38;;;;;;;16.23;3.83;;;;;;;10.05;54.86;93834.31;5013356;28;20184;-69
2020/12/31 01:49:05;;;;;;;13.57;3.57;;;;;;;9.72;55.94;93865.22;5013184;28;20173;-69
2020/12/31 01:51:31;;;;;;;8.60;4.13;;;;;;;9.81;56.07;93820.34;5013178;28;20952;-71
2020/12/31 01:53:56;;;;;;;9.13;3.57;;;;;;;9.94;55.19;93838.78;4995289;28;21103;-69
2020/12/31 01:56:27;;;;;;;9.80;4.00;;;;;;;9.75;55.51;93826.38;4995811;28;20572;-72
2020/12/31 01:58:53;;;;;;;21.63;3.87;;;;;;;9.88;56.22;93818.91;5012821;28;20177;-69
2020/12/31 02:01:20;;;;;;;10.40;3.47;;;;;;;9.59;56.75;93839.91;5012729;28;20583;-72
2020/12/31 02:03:45;;;;;;;14.60;3.97;;;;;;;9.73;56.17;93834.75;4995505;28;20744;-72
2020/12/31 02:06:11;;;;;;;10.53;3.63;;;;;;;9.95;55.70;93808.31;5012862;28;20595;-72
2020/12/31 02:08:36;;;;;;;13.97;3.57;;;;;;;9.59;57.22;93834.59;5012586;28;20226;-73
2020/12/31 02:11:02;;;;;;;10.83;4.33;;;;;;;9.42;56.93;93835.13;4995395;28;20212;-70
2020/12/31 02:13:27;;;;;;;13.00;3.60;;;;;;;9.28;57.51;93825.09;4994390;28;20196;-72
2020/12/31 02:15:53;;;;;;;22.30;4.30;;;;;;;9.58;57.26;93814.41;5012746;28;20173;-71
2020/12/31 02:18:18;;;;;;;12.87;4.30;;;;;;;9.90;56.09;93805.97;5012672;28;20256;-72
2020/12/31 02:20:44;;;;;;;10.03;3.80;;;;;;;9.98;56.44;93821.66;5012406;28;20168;-71
2020/12/31 02:23:09;;;;;;;19.07;4.50;;;;;;;9.41;57.26;93799.75;5012452;28;20232;-71
2020/12/31 02:25:35;;;;;;;18.03;3.70;;;;;;;9.20;56.74;93823.44;4978658;28;20632;-74
2020/12/31 02:28:00;;;;;;;18.17;5.63;;;;;;;9.41;56.86;93820.28;5012391;28;20221;-71
2020/12/31 02:30:26;;;;;;;11.23;3.57;;;;;;;9.82;55.46;93791.81;5012279;28;20212;-69
2020/12/31 02:32:51;;;;;;;23.57;5.50;;;;;;;9.80;55.98;93791.41;5011788;28;20169;-72
2020/12/31 02:35:17;;;;;;;7.80;4.10;;;;;;;9.44;56.50;93790.28;5012183;28;20172;-73
2020/12/31 02:37:42;;;;;;;11.67;4.00;;;;;;;9.30;57.38;93806.06;5012361;28;20648;-72
2020/12/31 02:40:08;;;;;;;12.93;3.90;;;;;;;9.30;57.17;93788.19;5012759;28;20235;-71
2020/12/31 02:42:33;;;;;;;10.80;4.27;;;;;;;9.57;56.16;93791.53;5011844;28;20698;-71
2020/12/31 02:44:59;;;;;;;18.37;5.57;;;;;;;9.62;56.57;93777.91;5012156;28;20208;-71
2020/12/31 02:47:24;;;;;;;21.73;4.20;;;;;;;9.66;56.42;93756.63;5012093;28;20173;-71
2020/12/31 02:49:50;;;;;;;16.13;5.57;;;;;;;9.39;57.66;93763.94;4994607;28;20200;-71
2020/12/31 02:52:15;;;;;;;14.33;4.57;;;;;;;9.75;56.75;93741.84;5011915;28;20526;-72
2020/12/31 02:54:41;;;;;;;12.70;3.67;;;;;;;9.47;57.14;93774.31;5012024;28;20195;-70
2020/12/31 02:57:06;;;;;;;8.70;3.53;;;;;;;9.58;56.65;93747.78;5011811;28;20659;-70
2020/12/31 02:59:32;;;;;;;12.83;3.77;;;;;;;9.83;55.99;93742.69;5011946;28;20180;-71
2020/12/31 03:01:57;;;;;;;14.93;4.70;;;;;;;9.79;55.95;93768.53;5011583;28;20251;-70
2020/12/31 03:04:23;;;;;;;9.67;4.03;;;;;;;9.39;56.19;93735.41;5011998;28;20180;-70
2020/12/31 03:06:48;;;;;;;22.47;4.60;;;;;;;9.24;56.98;93755.78;5011992;28;20208;-69
2020/12/31 03:09:14;;;;;;;11.07;3.77;;;;;;;9.04;57.68;93758.97;5011612;28;20172;-69
2020/12/31 03:11:40;;;;;;;13.73;4.10;;;;;;;9.17;57.35;93757.59;5011618;28;20177;-70
2020/12/31 03:14:05;;;;;;;13.00;4.27;;;;;;;9.35;57.57;93753.25;5011566;28;20208;-69
2020/12/31 03:16:31;;;;;;;8.43;3.83;;;;;;;9.27;57.29;93765.72;5011621;28;20196;-70
2020/12/31 03:18:56;;;;;;;18.03;3.43;;;;;;;9.14;57.90;93764.41;5011423;28;20593;-70
2020/12/31 03:21:22;;;;;;;14.43;4.00;;;;;;;9.41;56.64;93757.09;5011515;28;20637;-70
2020/12/31 03:23:47;;;;;;;13.40;3.73;;;;;;;9.56;55.75;93749.28;5011391;28;20215;-70
2020/12/31 03:26:13;;;;;;;17.53;3.90;;;;;;;9.70;55.80;93742.16;5011533;28;20180;-70
2020/12/31 03:28:38;;;;;;;17.77;4.30;;;;;;;9.52;56.95;93741.25;5011381;28;20229;-69
2020/12/31 03:31:04;;;;;;;13.27;4.13;;;;;;;9.36;57.22;93736.13;5011301;28;20177;-70
2020/12/31 03:33:29;;;;;;;22.07;4.07;;;;;;;9.07;58.10;93756.34;5010380;28;20177;-71
2020/12/31 03:35:55;;;;;;;11.00;3.80;;;;;;;9.19;57.09;93755.34;5011345;28;20347;-70
2020/12/31 03:38:21;;;;;;;11.57;4.70;;;;;;;9.13;57.26;93748.81;5011661;28;20254;-70
2020/12/31 03:40:47;;;;;;;12.00;3.70;;;;;;;9.18;57.28;93757.25;5011082;28;20184;-69
2020/12/31 03:43:12;;;;;;;10.77;3.27;;;;;;;8.87;58.20;93739.75;5011214;28;20649;-69
2020/12/31 03:45:38;;;;;;;16.17;4.97;;;;;;;8.72;59.19;93746.03;5015243;28;20169;-69
2020/12/31 03:48:04;;;;;;;9.87;4.40;;;;;;;8.71;58.68;93742.59;5015520;28;20298;-71
2020/12/31 03:50:29;;;;;;;16.20;3.97;;;;;;;8.86;59.33;93740.09;5015231;28;20173;-68
2020/12/31 03:52:55;;;;;;;15.87;4.50;;;;;;;9.01;59.04;93744.47;4997922;28;20181;-70
2020/12/31 03:55:20;;;;;;;20.37;4.20;;;;;;;8.92;58.67;93751.97;5015377;28;20659;-69
2020/12/31 03:57:46;;;;;;;14.33;3.60;;;;;;;8.68;59.22;93743.31;5014935;28;20744;-68
2020/12/31 04:00:12;;;;;;;16.03;3.70;;;;;;;9.04;58.90;93741.09;5015227;28;20644;-69
2020/12/31 04:02:38;;;;;;;9.17;3.80;;;;;;;8.65;59.62;93725.41;5014702;28;20295;-71
2020/12/31 04:05:04;;;;;;;13.93;3.60;;;;;;;8.77;59.30;93721.75;5015154;28;20594;-70
2020/12/31 04:07:29;;;;;;;12.10;4.17;;;;;;;8.96;58.92;93721.59;4996919;28;20280;-70
2020/12/31 04:09:55;;;;;;;22.00;4.77;;;;;;;8.90;59.80;93716.97;5015093;28;21149;-69
2020/12/31 04:12:20;;;;;;;26.20;4.90;;;;;;;9.02;58.78;93730.03;5014617;28;20177;-71
2020/12/31 04:14:46;;;;;;;10.30;3.80;;;;;;;8.95;59.16;93733.38;5014760;28;20216;-69
2020/12/31 04:17:11;;;;;;;21.27;5.03;;;;;;;8.82;58.96;93726.75;5014666;28;20224;-70
2020/12/31 04:19:40;;;;;;;13.70;4.17;;;;;;;8.77;59.29;93713.00;5014519;28;20775;-68
2020/12/31 04:22:07;;;;;;;11.67;4.63;;;;;;;8.62;59.35;93722.69;5014809;28;20209;-71
2020/12/31 04:24:32;;;;;;;18.20;4.37;;;;;;;8.37;60.15;93725.03;5014487;28;21127;-70
2020/12/31 04:26:58;;;;;;;21.27;4.07;;;;;;;8.58;60.06;93727.19;5014712;28;20647;-69
2020/12/31 04:29:23;;;;;;;13.20;4.30;;;;;;;8.78;59.72;93719.84;5014333;28;20166;-69
2020/12/31 04:31:49;;;;;;;23.17;5.03;;;;;;;8.90;59.67;93714.31;5014856;28;20212;-69
2020/12/31 04:34:14;;;;;;;20.97;5.93;;;;;;;9.18;58.97;93703.97;5014371;28;20212;-70
2020/12/31 04:36:40;;;;;;;13.67;4.47;;;;;;;9.17;59.28;93699.78;5014514;28;20195;-69
2020/12/31 04:39:05;;;;;;;21.53;4.77;;;;;;;9.13;59.17;93706.97;5014235;28;20671;-69
2020/12/31 04:41:31;;;;;;;13.20;4.90;;;;;;;9.09;58.52;93708.84;4996921;28;20637;-71
2020/12/31 04:43:56;;;;;;;18.80;4.10;;;;;;;8.96;59.17;93702.19;5014264;28;20211;-69
2020/12/31 04:46:22;;;;;;;10.67;4.33;;;;;;;8.94;58.58;93715.13;4996007;28;20656;-70
2020/12/31 04:49:19;;;;;;;14.50;3.80;;;;;;;9.01;58.05;93709.88;5014305;28;20169;-70
2020/12/31 04:51:44;;;;;;;10.97;3.47;;;;;;;9.20;58.85;93704.38;5012758;28;20197;-71
2020/12/31 04:54:10;;;;;;;20.60;4.87;;;;;;;9.08;59.46;93703.84;4980334;28;20631;-70
2020/12/31 04:56:36;;;;;;;12.67;3.70;;;;;;;9.19;58.78;93715.38;4996019;28;20205;-73
2020/12/31 04:59:03;;;;;;;15.90;4.40;;;;;;;9.17;58.51;93713.09;5014117;28;20169;-72
2020/12/31 05:01:28;;;;;;;11.10;3.77;;;;;;;9.30;59.16;93707.50;5013813;28;20580;-71
2020/12/31 05:03:54;;;;;;;10.97;3.93;;;;;;;9.16;58.45;93706.25;5014233;28;20641;-71
2020/12/31 05:06:21;;;;;;;11.87;3.57;;;;;;;9.47;57.13;93718.34;4996200;28;20574;-72
2020/12/31 05:08:46;;;;;;;10.97;3.90;;;;;;;9.34;59.15;93711.75;4996709;28;20169;-73
2020/12/31 05:11:12;;;;;;;8.90;3.30;;;;;;;9.28;59.00;93708.66;5013567;28;20649;-71
2020/12/31 05:13:45;;;;;;;15.33;3.83;;;;;;;9.29;58.47;93712.06;5014091;28;20743;-70
2020/12/31 05:16:10;;;;;;;11.20;4.07;;;;;;;8.94;59.19;93717.78;5013642;28;20264;-72
2020/12/31 05:18:36;;;;;;;16.30;4.40;;;;;;;8.91;60.69;93716.59;4995422;28;20600;-69
2020/12/31 05:21:01;;;;;;;11.53;5.43;;;;;;;8.96;60.42;93716.28;5013489;28;20185;-70
2020/12/31 05:23:28;;;;;;;11.73;6.00;;;;;;;8.95;59.76;93708.66;4979927;28;20213;-72
2020/12/31 05:25:54;;;;;;;17.57;4.77;;;;;;;9.32;59.27;93729.25;5013387;28;20185;-70
2020/12/31 05:28:33;;;;;;;18.43;4.63;;;;;;;9.04;59.28;93733.13;5013445;28;20638;-72
2020/12/31 05:30:59;;;;;;;11.10;4.00;;;;;;;8.76;59.61;93738.09;5013126;28;20657;-71
2020/12/31 05:33:28;;;;;;;11.47;4.03;;;;;;;8.68;59.80;93735.31;5013549;28;20666;-72
2020/12/31 05:36:16;;;;;;;10.70;5.07;;;;;;;8.69;60.03;93730.75;5013365;28;20692;-70
2020/12/31 05:38:57;;;;;;;14.83;4.57;;;;;;;8.51;60.87;93719.13;4982971;28;20690;-71
2020/12/31 05:41:25;;;;;;;13.90;6.43;;;;;;;8.91;59.81;93726.47;5013093;28;20580;-70
2020/12/31 05:43:55;;;;;;;13.87;4.53;;;;;;;8.64;60.03;93723.88;5013168;28;20662;-72
2020/12/31 05:46:21;;;;;;;18.77;6.23;;;;;;;8.94;62.56;93733.75;5013092;28;20583;-70
2020/12/31 05:49:02;;;;;;;13.13;5.27;;;;;;;9.01;60.18;93731.16;5013232;28;20629;-69
2020/12/31 05:51:32;;;;;;;13.77;4.60;;;;;;;9.19;59.41;93732.13;5012973;28;20697;-71
2020/12/31 05:54:09;;;;;;;16.53;4.97;;;;;;;9.16;59.64;93727.56;4995808;28;20583;-70
2020/12/31 05:56:39;;;;;;;20.00;5.93;;;;;;;9.52;58.53;93733.25;4995454;28;20618;-70
2020/12/31 05:59:26;;;;;;;18.47;5.13;;;;;;;9.48;58.93;93733.22;5013044;28;20618;-70
2020/12/31 06:01:59;;;;;;;22.37;5.60;;;;;;;9.25;59.49;93730.69;5012826;28;20789;-70
2020/12/31 06:04:30;;;;;;;21.13;4.87;;;;;;;9.27;59.61;93733.00;5012702;28;20674;-70
2020/12/31 06:07:04;;;;;;;14.80;5.13;;;;;;;9.14;60.43;93737.00;5012174;28;20687;-69
2020/12/31 06:09:30;;;;;;;18.93;5.10;;;;;;;9.07;59.95;93744.94;5012517;28;20584;-70
2020/12/31 06:12:03;;;;;;;25.33;5.83;;;;;;;8.93;59.82;93756.19;5012840;28;20591;-70
2020/12/31 06:14:32;;;;;;;16.87;6.40;;;;;;;8.81;60.43;93751.84;5012431;28;20564;-70
2020/12/31 06:17:02;;;;;;;17.70;7.20;;;;;;;9.01;60.13;93760.47;4994501;28;20603;-70
2020/12/31 06:19:34;;;;;;;15.00;6.70;;;;;;;9.16;59.84;93746.19;5012616;28;20961;-73
2020/12/31 06:22:04;;;;;;;17.40;5.70;;;;;;;9.45;59.12;93738.50;5012540;28;20734;-72
2020/12/31 06:24:37;;;;;;;16.83;5.27;;;;;;;9.46;59.43;93742.69;4994775;28;21224;-71
2020/12/31 06:27:06;;;;;;;19.70;5.47;;;;;;;9.58;58.61;93750.44;5012165;28;21252;-72
2020/12/31 06:29:40;;;;;;;15.30;5.57;;;;;;;9.61;58.81;93747.06;5089037;27;20517;-70
2020/12/31 06:32:31;;;;;;;18.40;5.97;;;;;;;9.36;59.08;93724.69;5089247;28;20429;-70
2020/12/31 06:35:10;;;;;;;16.73;4.63;;;;;;;9.18;60.72;93754.56;5087926;28;20178;-70
2020/12/31 06:37:35;;;;;;;15.20;4.50;;;;;;;9.22;60.78;93749.31;5088932;28;20409;-69
2020/12/31 06:40:29;;;;;;;12.17;4.47;;;;;;;9.66;59.31;93749.38;5088800;28;20429;-70
2020/12/31 06:43:15;;;;;;;11.83;3.80;;;;;;;9.48;59.85;93761.75;5087550;28;20182;-70
2020/12/31 06:45:42;;;;;;;14.47;6.03;;;;;;;9.73;58.19;93743.34;5088384;28;20519;-69
2020/12/31 06:48:25;;;;;;;15.63;4.97;;;;;;;9.73;58.60;93760.09;5088441;28;20551;-70
2020/12/31 06:50:58;;;;;;;16.13;4.40;;;;;;;9.88;58.58;93753.03;5088781;28;20470;-70
2020/12/31 06:53:37;;;;;;;21.80;5.37;;;;;;;9.64;59.31;93761.53;5087405;28;20413;-68
2020/12/31 06:56:07;;;;;;;12.23;5.20;;;;;;;9.66;59.06;93784.03;5088640;28;20481;-69
2020/12/31 06:58:32;;;;;;;18.17;5.07;;;;;;;9.61;59.10;93792.34;5087132;28;20456;-68
2020/12/31 07:00:58;;;;;;;22.10;5.50;;;;;;;9.60;59.14;93785.50;5088615;28;20415;-69
2020/12/31 07:03:47;;;;;;;14.37;6.57;;;;;;;9.77;58.97;93797.47;5088331;28;20201;-69
2020/12/31 07:06:21;;;;;;;17.27;5.17;;;;;;;9.80;59.45;93808.16;5066129;28;20188;-69
2020/12/31 07:08:47;;;;;;;15.70;4.57;;;;;;;9.98;58.20;93807.56;5065976;28;20475;-68
2020/12/31 07:11:13;;;;;;;17.83;4.87;;;;;;;9.99;58.53;93798.44;5066036;28;20437;-71
2020/12/31 07:13:41;;;;;;;22.50;5.03;;;;;;;10.01;58.37;93783.59;5049274;28;20290;-69
2020/12/31 07:16:07;;;;;;;10.63;5.17;;;;;;;9.87;59.69;93802.13;5065982;28;20631;-69
2020/12/31 07:18:32;;;;;;;16.40;5.80;;;;;;;9.79;60.65;93797.88;5049118;28;20868;-69
2020/12/31 07:21:01;;;;;;;15.60;5.00;;;;;;;9.92;61.83;93803.69;5065880;28;20526;-69
2020/12/31 07:23:38;;;;;;;17.87;6.73;;;;;;;9.94;63.68;93799.53;5065464;28;20191;-69
2020/12/31 07:26:04;;;;;;;15.43;6.07;;;;;;;10.06;63.70;93820.59;5049255;28;20417;-69
2020/12/31 07:28:30;;;;;;;17.80;5.63;;;;;;;9.67;62.71;93822.88;5048662;28;20480;-69
2020/12/31 07:30:55;;;;;;;17.90;7.07;;;;;;;9.80;63.06;93813.50;5065671;28;20179;-69
2020/12/31 07:33:33;;;;;;;21.10;7.73;;;;;;;9.64;65.95;93812.16;5065374;28;20565;-70
2020/12/31 07:35:59;;;;;;;23.70;10.17;;;;;;;9.54;67.30;93814.38;5065595;28;20274;-69
2020/12/31 07:38:25;;;;;;;20.60;7.20;;;;;;;9.58;68.28;93822.38;5065117;28;21038;-69
2020/12/31 07:40:53;;;;;;;22.07;8.00;;;;;;;9.67;68.85;93830.13;5053224;28;20179;-69
2020/12/31 07:43:23;;;;;;;23.03;7.70;;;;;;;9.40;66.64;93821.44;5064087;28;20427;-70
2020/12/31 07:45:50;;;;;;;19.13;7.67;;;;;;;9.70;67.42;93810.72;5073127;28;20932;-70
2020/12/31 07:48:16;;;;;;;23.00;8.77;;;;;;;9.58;69.44;93825.06;5073884;28;20491;-70
2020/12/31 07:50:42;;;;;;;21.03;8.63;;;;;;;9.41;69.35;93830.94;5073057;28;20425;-69
2020/12/31 07:53:09;;;;;;;24.93;8.97;;;;;;;9.35;68.63;93824.41;5073852;28;20421;-69
2020/12/31 07:55:35;;;;;;;32.20;10.63;;;;;;;9.54;68.03;93822.38;5056356;28;20589;-69
2020/12/31 07:58:01;;;;;;;22.23;9.07;;;;;;;9.76;67.80;93822.56;5073941;28;20471;-72
2020/12/31 08:00:27;;;;;;;20.67;7.90;;;;;;;9.66;66.08;93813.34;5072557;28;20451;-72
2020/12/31 08:02:55;;;;;;;21.73;6.67;;;;;;;9.69;66.48;93825.19;5072319;28;20844;-70
2020/12/31 08:05:24;;;;;;;20.07;6.60;;;;;;;9.65;66.73;93816.38;5072679;28;20170;-70
2020/12/31 08:07:54;;;;;;;13.20;6.80;;;;;;;9.74;66.38;93825.63;5056206;28;20461;-70
2020/12/31 08:10:20;;;;;;;27.07;6.50;;;;;;;9.77;66.98;93819.56;5073706;28;20522;-71
2020/12/31 08:13:04;;;;;;;17.27;6.03;;;;;;;9.71;66.89;93841.59;5073724;28;20931;-72
2020/12/31 08:15:31;;;;;;;20.00;7.90;;;;;;;9.69;68.14;93838.50;5073559;28;20167;-72
2020/12/31 08:17:57;;;;;;;20.37;6.40;;;;;;;9.55;69.66;93833.78;5073802;28;20878;-70
2020/12/31 08:20:29;;;;;;;22.83;6.13;;;;;;;9.69;67.94;93854.50;5072146;28;20417;-70
2020/12/31 08:22:56;;;;;;;15.13;6.60;;;;;;;9.64;67.92;93863.56;5072596;28;20868;-70
2020/12/31 08:25:24;;;;;;;13.63;6.43;;;;;;;9.61;68.27;93851.00;5073287;28;20445;-69
2020/12/31 08:27:51;;;;;;;19.90;6.73;;;;;;;9.79;70.19;93843.94;5073323;28;20465;-71
2020/12/31 08:30:18;;;;;;;25.93;7.70;;;;;;;9.52;72.33;93845.16;5073019;28;20425;-71
2020/12/31 08:32:52;;;;;;;19.47;7.03;;;;;;;9.28;73.83;93833.84;5072171;28;20458;-71
2020/12/31 08:35:53;;;;;;;17.37;6.23;;;;;;;9.18;74.68;93828.38;5073107;28;20516;-70
2020/12/31 08:38:22;;;;;;;24.77;6.87;;;;;;;9.02;74.61;93847.19;5017741;28;20437;-71
2020/12/31 08:40:51;;;;;;;21.13;6.27;;;;;;;8.85;75.61;93835.16;5035019;28;20513;-69
2020/12/31 08:43:39;;;;;;;13.30;6.60;;;;;;;9.12;75.07;93822.59;5051013;28;20487;-69
2020/12/31 08:46:08;;;;;;;12.93;6.20;;;;;;;9.27;75.12;93840.31;5050974;28;20450;-70
2020/12/31 08:48:35;;;;;;;11.83;5.83;;;;;;;9.24;76.37;93846.34;5017974;28;20498;-72
2020/12/31 08:51:10;;;;;;;13.60;5.47;;;;;;;9.14;76.20;93854.19;5050173;28;20842;-69
2020/12/31 08:53:59;;;;;;;21.43;7.23;;;;;;;9.37;74.50;93838.13;5033859;28;20445;-71
2020/12/31 08:56:28;;;;;;;13.70;6.07;;;;;;;9.71;74.22;93830.94;5034180;28;20508;-70
2020/12/31 08:59:16;;;;;;;15.83;7.93;;;;;;;9.54;75.77;93822.38;5033937;28;20449;-71
2020/12/31 09:01:42;;;;;;;11.43;5.53;;;;;;;9.37;75.86;93822.94;5034523;28;20461;-71
2020/12/31 09:04:09;;;;;;;17.40;6.50;;;;;;;9.32;75.90;93835.81;5050473;28;20855;-71
2020/12/31 09:06:35;;;;;;;15.27;5.53;;;;;;;9.35;74.66;93816.41;5050499;28;20475;-70
2020/12/31 09:09:01;;;;;;;12.97;6.20;;;;;;;9.49;74.74;93816.59;5050235;28;20892;-70
2020/12/31 09:11:27;;;;;;;13.27;6.50;;;;;;;9.39;76.72;93819.91;5053952;28;20433;-71
2020/12/31 09:13:53;;;;;;;15.60;5.90;;;;;;;9.45;74.86;93823.78;5072370;28;20653;-71
2020/12/31 09:16:18;;;;;;;15.07;6.30;;;;;;;9.80;72.64;93821.50;5071255;28;20429;-73
2020/12/31 09:18:44;;;;;;;27.23;9.03;;;;;;;9.76;73.34;93799.38;5070875;28;20428;-72
2020/12/31 09:21:10;;;;;;;25.97;6.10;;;;;;;9.58;73.82;93825.06;5072219;28;20166;-71
2020/12/31 09:23:35;;;;;;;12.87;5.93;;;;;;;9.64;75.14;93822.84;5072183;28;20163;-71
2020/12/31 09:26:01;;;;;;;18.60;6.67;;;;;;;9.69;75.61;93822.50;5072361;28;20562;-71
2020/12/31 09:28:27;;;;;;;8.97;5.10;;;;;;;10.04;73.90;93814.09;5053792;28;20227;-71
2020/12/31 09:30:57;;;;;;;14.67;4.90;;;;;;;10.21;73.03;93810.06;5071961;28;20167;-71
2020/12/31 09:33:23;;;;;;;13.20;6.03;;;;;;;10.00;71.55;93818.66;5070972;28;20939;-72
2020/12/31 09:35:49;;;;;;;15.57;5.17;;;;;;;10.17;71.51;93806.63;5071783;28;20471;-72
2020/12/31 09:38:18;;;;;;;12.67;5.20;;;;;;;10.44;71.14;93783.22;5072320;28;20409;-73
2020/12/31 09:40:44;;;;;;;18.03;7.30;;;;;;;10.51;71.83;93785.94;5071935;28;20228;-71
2020/12/31 09:43:09;;;;;;;12.33;5.80;;;;;;;10.57;71.43;93771.88;5054110;28;20429;-71
2020/12/31 09:45:35;;;;;;;11.70;5.50;;;;;;;10.71;73.25;93768.50;5071624;28;20437;-70
2020/12/31 09:48:01;;;;;;;15.00;5.13;;;;;;;10.81;71.61;93765.16;5070789;28;20198;-71
2020/12/31 09:50:27;;;;;;;10.63;4.80;;;;;;;11.07;71.87;93763.38;5071639;28;20209;-72
2020/12/31 09:52:53;;;;;;;13.67;5.73;;;;;;;11.21;69.06;93760.00;5071643;28;20968;-73
2020/12/31 09:55:19;;;;;;;10.70;5.10;;;;;;;11.28;68.55;93757.34;5071619;28;20417;-71
2020/12/31 09:57:44;;;;;;;11.00;6.07;;;;;;;11.07;70.62;93756.13;5070586;28;20179;-71
2020/12/31 10:00:10;;;;;;;13.50;5.50;;;;;;;11.30;72.04;93749.72;5071696;28;20649;-71
2020/12/31 10:02:35;;;;;;;15.30;6.07;;;;;;;11.48;72.28;93729.16;5071335;28;20160;-70
2020/12/31 10:05:01;;;;;;;20.83;6.40;;;;;;;11.44;71.36;93728.38;5071779;28;20265;-73
2020/12/31 10:07:26;;;;;;;18.60;7.83;;;;;;;11.89;69.05;93723.53;5071321;28;20639;-73
2020/12/31 10:09:52;;;;;;;14.27;6.30;;;;;;;11.83;69.04;93733.06;5071636;28;20202;-71
2020/12/31 10:12:17;;;;;;;14.40;6.47;;;;;;;11.68;68.48;93731.50;5053570;28;20300;-72
2020/12/31 10:14:43;;;;;;;16.90;7.07;;;;;;;11.76;69.79;93733.81;5071428;28;20600;-70
2020/12/31 10:17:09;;;;;;;14.37;6.40;;;;;;;11.88;70.02;93725.44;5068987;28;20301;-73
2020/12/31 10:19:35;;;;;;;19.00;6.43;;;;;;;11.84;70.26;93721.22;5071603;28;20171;-70
2020/12/31 10:22:00;;;;;;;13.80;5.67;;;;;;;11.86;70.80;93725.06;5071223;28;20228;-73
2020/12/31 10:24:26;;;;;;;13.97;5.47;;;;;;;12.06;69.15;93727.34;5070606;28;20163;-72
2020/12/31 10:26:51;;;;;;;10.47;4.67;;;;;;;12.02;68.56;93723.94;5068491;28;20174;-72
2020/12/31 10:29:17;;;;;;;15.30;5.40;;;;;;;11.80;69.98;93733.81;5070458;28;20606;-72
2020/12/31 10:31:43;;;;;;;9.67;5.17;;;;;;;11.79;68.55;93711.66;5071031;28;20171;-72
2020/12/31 10:34:09;;;;;;;12.07;4.87;;;;;;;11.89;66.67;93708.25;5071295;28;20258;-71
2020/12/31 10:36:35;;;;;;;12.17;4.53;;;;;;;11.78;67.00;93726.16;5071315;28;20171;-73
2020/12/31 10:39:02;;;;;;;10.30;4.37;;;;;;;11.52;66.89;93729.19;5071065;28;20998;-71
2020/12/31 10:41:27;;;;;;;8.50;3.33;;;;;;;11.81;64.97;93705.94;5071232;28;20178;-71
2020/12/31 10:43:53;;;;;;;13.40;4.47;;;;;;;11.76;65.64;93717.00;5071061;28;20418;-71
2020/12/31 10:46:25;;;;;;;9.97;3.17;;;;;;;11.96;64.55;93701.38;5053317;28;20174;-71
2020/12/31 10:48:51;;;;;;;6.27;2.40;;;;;;;12.05;57.42;93697.16;5053302;28;20301;-71
2020/12/31 10:51:16;;;;;;;9.43;3.20;;;;;;;12.12;61.27;93694.50;5071197;28;20497;-71
2020/12/31 10:53:42;;;;;;;6.23;3.03;;;;;;;12.24;61.49;93697.94;5070778;28;20209;-72
2020/12/31 10:56:07;;;;;;;6.47;3.90;;;;;;;12.28;63.46;93694.09;5071019;28;20201;-71
2020/12/31 10:58:35;;;;;;;7.83;4.77;;;;;;;12.33;63.47;93693.72;5071312;28;20229;-71
2020/12/31 11:01:00;;;;;;;7.50;3.40;;;;;;;12.28;63.23;93693.34;5069623;28;20186;-72
2020/12/31 11:03:26;;;;;;;14.33;4.83;;;;;;;12.42;63.50;93686.06;5071149;28;20417;-71
2020/12/31 11:05:52;;;;;;;6.30;3.70;;;;;;;12.61;62.59;93687.53;5070714;28;20167;-72
2020/12/31 11:08:17;;;;;;;12.00;3.60;;;;;;;12.47;62.44;93678.78;5070908;28;20199;-72
2020/12/31 11:10:43;;;;;;;4.83;3.50;;;;;;;12.57;60.26;93677.97;5070928;28;20224;-72
2020/12/31 11:13:09;;;;;;;9.00;3.57;;;;;;;12.40;60.29;93663.47;5070922;28;20552;-73
2020/12/31 11:15:34;;;;;;;7.33;3.40;;;;;;;12.49;59.87;93668.44;5071985;28;20664;-72
2020/12/31 11:18:01;;;;;;;5.77;2.67;;;;;;;12.51;59.84;93663.47;5074560;28;20417;-74
2020/12/31 11:20:26;;;;;;;9.63;3.30;;;;;;;12.74;57.95;93665.69;5074731;28;20258;-72
2020/12/31 11:22:52;;;;;;;6.80;3.03;;;;;;;12.71;56.49;93668.00;5073243;28;20950;-72
2020/12/31 11:25:17;;;;;;;6.53;2.80;;;;;;;12.60;56.60;93663.84;5074456;28;20159;-73
2020/12/31 11:27:43;;;;;;;5.23;2.43;;;;;;;12.63;55.92;93673.78;5072946;28;20230;-73
2020/12/31 11:30:08;;;;;;;6.87;2.00;;;;;;;12.61;56.57;93658.06;5074527;28;20175;-72
2020/12/31 11:32:38;;;;;;;7.93;2.53;;;;;;;12.77;56.98;93660.34;5074373;28;20171;-73
2020/12/31 11:35:03;;;;;;;14.73;2.87;;;;;;;12.83;53.01;93664.13;5074413;28;20178;-71